Time;durP1;ratioP1;P1;durP2;ratioP2;P2;SDS_P1;SDS_P2;PMS_P1;PMS_P2;Temp;Humidity;BMP_temperature;BMP_pressure;BME280_temperature;BME280_humidity;BME280_pressure;Samples;Min_cycle;Max_cycle;Signal;HPM_P1;HPM_P2
2023/10/30 00:02:03;;;;;;;17.08;3.00;;;;;;;;;;5052308;28;20033;-70
2023/10/30 00:04:30;;;;;;;15.68;2.42;;;;;;;;;;5052929;28;20032;-70
2023/10/30 00:06:56;;;;;;;10.18;2.58;;;;;;;;;;5052759;28;20383;-71
2023/10/30 00:09:23;;;;;;;15.85;2.88;;;;;;;;;;5052793;28;20036;-70
2023/10/30 00:11:49;;;;;;;10.38;2.50;;;;;;;;;;5052816;28;20021;-70
2023/10/30 00:14:15;;;;;;;18.15;2.75;;;;;;;;;;5052528;28;20027;-71
2023/10/30 00:16:42;;;;;;;12.55;2.70;;;;;;;;;;5052086;28;20411;-70
2023/10/30 00:19:08;;;;;;;14.80;2.80;;;;;;;;;;5052687;28;20025;-70
2023/10/30 00:21:35;;;;;;;16.35;2.22;;;;;;;;;;5052392;28;20025;-70
2023/10/30 00:24:02;;;;;;;10.30;2.35;;;;;;;;;;5052440;28;20497;-70
2023/10/30 00:26:29;;;;;;;18.45;2.85;;;;;;;;;;5052314;28;20035;-70
2023/10/30 00:28:57;;;;;;;14.90;3.33;;;;;;;;;;5052186;28;20027;-71
2023/10/30 00:31:24;;;;;;;15.10;2.63;;;;;;;;;;5052002;28;20535;-70
2023/10/30 00:33:50;;;;;;;12.70;2.40;;;;;;;;;;5052669;28;20031;-70
2023/10/30 00:36:16;;;;;;;9.77;2.08;;;;;;;;;;5052197;28;20389;-70
2023/10/30 00:38:43;;;;;;;10.43;2.67;;;;;;;;;;5052358;28;20504;-70
2023/10/30 00:41:10;;;;;;;16.55;2.97;;;;;;;;;;5052543;28;20028;-70
2023/10/30 00:43:37;;;;;;;17.95;2.65;;;;;;;;;;5052163;28;20393;-71
2023/10/30 00:46:07;;;;;;;15.20;2.75;;;;;;;;;;5050593;28;20032;-70
2023/10/30 00:48:33;;;;;;;15.60;2.55;;;;;;;;;;5052095;28;20025;-70
2023/10/30 00:51:00;;;;;;;14.93;2.20;;;;;;;;;;5051180;28;20029;-70
2023/10/30 00:53:26;;;;;;;16.35;3.00;;;;;;;;;;5052235;28;20014;-71
2023/10/30 00:55:53;;;;;;;24.52;3.20;;;;;;;;;;5052347;28;20033;-71
2023/10/30 00:58:19;;;;;;;14.05;2.90;;;;;;;;;;5051874;28;20067;-70
2023/10/30 01:00:45;;;;;;;11.07;2.10;;;;;;;;;;5051669;28;20047;-71
2023/10/30 01:03:12;;;;;;;10.38;2.13;;;;;;;;;;5052000;28;20029;-71
2023/10/30 01:05:38;;;;;;;9.68;2.40;;;;;;;;;;5052292;28;20020;-70
2023/10/30 01:08:08;;;;;;;18.98;2.83;;;;;;;;;;5051898;28;20028;-70
2023/10/30 01:10:36;;;;;;;14.57;2.63;;;;;;;;;;5052096;28;20032;-71
2023/10/30 01:13:02;;;;;;;10.85;2.55;;;;;;;;;;5056010;28;20056;-70
2023/10/30 01:15:29;;;;;;;10.90;2.40;;;;;;;;;;5055281;28;20385;-70
2023/10/30 01:17:55;;;;;;;12.07;2.53;;;;;;;;;;5055586;28;20032;-70
2023/10/30 01:20:21;;;;;;;11.00;2.97;;;;;;;;;;5055505;28;20025;-70
2023/10/30 01:22:49;;;;;;;12.73;2.40;;;;;;;;;;5055802;28;20389;-70
2023/10/30 01:25:15;;;;;;;14.85;2.58;;;;;;;;;;5055751;28;20028;-70
2023/10/30 01:27:41;;;;;;;10.98;1.98;;;;;;;;;;5055454;28;20045;-71
2023/10/30 01:30:08;;;;;;;9.05;2.05;;;;;;;;;;5055054;28;20025;-70
2023/10/30 01:32:34;;;;;;;14.63;2.05;;;;;;;;;;5055294;28;20025;-70
2023/10/30 01:35:00;;;;;;;12.35;2.10;;;;;;;;;;5055240;28;20405;-70
2023/10/30 01:37:30;;;;;;;12.88;2.40;;;;;;;;;;5055265;28;20037;-72
2023/10/30 01:39:56;;;;;;;9.98;2.10;;;;;;;;;;5055081;28;20031;-70
2023/10/30 01:42:22;;;;;;;10.10;2.30;;;;;;;;;;5055650;28;20025;-71
2023/10/30 01:44:55;;;;;;;9.73;2.60;;;;;;;;;;5054621;28;20023;-70
2023/10/30 01:47:23;;;;;;;11.38;2.00;;;;;;;;;;5055165;28;20041;-71
2023/10/30 01:49:49;;;;;;;10.93;2.78;;;;;;;;;;5054966;28;20032;-70
2023/10/30 01:52:16;;;;;;;8.57;1.85;;;;;;;;;;5054854;28;20029;-70
2023/10/30 01:54:43;;;;;;;10.10;1.75;;;;;;;;;;5054880;28;20013;-71
2023/10/30 01:57:09;;;;;;;9.98;2.10;;;;;;;;;;5054986;28;20047;-70
2023/10/30 01:59:36;;;;;;;11.65;1.95;;;;;;;;;;5054446;28;20059;-70
2023/10/30 02:02:02;;;;;;;10.40;1.90;;;;;;;;;;5054797;28;20028;-70
2023/10/30 02:04:29;;;;;;;11.35;1.90;;;;;;;;;;5054759;28;20512;-70
2023/10/30 02:06:55;;;;;;;12.23;2.40;;;;;;;;;;5054723;28;20025;-70
2023/10/30 02:09:21;;;;;;;7.13;1.95;;;;;;;;;;5054585;28;20025;-70
2023/10/30 02:11:48;;;;;;;13.60;2.15;;;;;;;;;;5054861;28;20021;-70
2023/10/30 02:14:14;;;;;;;10.38;2.13;;;;;;;;;;5054290;28;20028;-70
2023/10/30 02:16:40;;;;;;;6.97;1.80;;;;;;;;;;5054568;28;20045;-71
2023/10/30 02:19:08;;;;;;;10.57;2.00;;;;;;;;;;5054554;28;20027;-70
2023/10/30 02:21:34;;;;;;;10.20;2.05;;;;;;;;;;5053878;28;20566;-71
2023/10/30 02:24:07;;;;;;;16.42;1.77;;;;;;;;;;5054361;28;20027;-70
2023/10/30 02:26:33;;;;;;;13.70;2.00;;;;;;;;;;5054243;28;20040;-70
2023/10/30 02:29:01;;;;;;;9.38;2.15;;;;;;;;;;5053592;28;20395;-70
2023/10/30 02:31:30;;;;;;;9.55;1.77;;;;;;;;;;5054504;28;20028;-70
2023/10/30 02:33:56;;;;;;;11.55;2.10;;;;;;;;;;5054121;28;20013;-71
2023/10/30 02:36:22;;;;;;;7.82;1.90;;;;;;;;;;5054376;28;20043;-71
2023/10/30 02:38:49;;;;;;;11.35;1.70;;;;;;;;;;5054054;28;20039;-71
2023/10/30 02:41:15;;;;;;;7.53;2.10;;;;;;;;;;5054264;28;20020;-70
2023/10/30 02:43:41;;;;;;;11.13;1.95;;;;;;;;;;5053773;28;20488;-71
2023/10/30 02:46:08;;;;;;;11.10;2.08;;;;;;;;;;5054120;28;20037;-70
2023/10/30 02:48:34;;;;;;;12.50;1.90;;;;;;;;;;5053978;28;20029;-70
2023/10/30 02:51:00;;;;;;;13.38;2.30;;;;;;;;;;5054198;28;20029;-70
2023/10/30 02:53:27;;;;;;;8.88;2.28;;;;;;;;;;5053783;28;20047;-71
2023/10/30 02:55:53;;;;;;;11.07;2.00;;;;;;;;;;5052496;28;20041;-71
2023/10/30 02:58:19;;;;;;;13.27;2.15;;;;;;;;;;5053430;28;20048;-71
2023/10/30 03:00:46;;;;;;;9.43;1.88;;;;;;;;;;5053685;28;20024;-71
2023/10/30 03:03:12;;;;;;;11.35;2.10;;;;;;;;;;5053949;28;20039;-71
2023/10/30 03:05:38;;;;;;;11.13;2.00;;;;;;;;;;5053705;28;20017;-71
2023/10/30 03:08:05;;;;;;;12.00;2.00;;;;;;;;;;5053501;28;20397;-70
2023/10/30 03:10:31;;;;;;;10.98;1.90;;;;;;;;;;5053316;28;20036;-70
2023/10/30 03:12:57;;;;;;;5.95;1.55;;;;;;;;;;5053458;28;20025;-70
2023/10/30 03:15:24;;;;;;;11.68;2.10;;;;;;;;;;5053651;28;20035;-70
2023/10/30 03:17:50;;;;;;;13.43;2.58;;;;;;;;;;5053180;28;20411;-71
2023/10/30 03:20:16;;;;;;;11.57;2.05;;;;;;;;;;5053292;28;20025;-71
2023/10/30 03:22:43;;;;;;;10.90;2.08;;;;;;;;;;5053206;28;20025;-70
2023/10/30 03:25:09;;;;;;;14.85;1.70;;;;;;;;;;5052894;28;20391;-71
2023/10/30 03:27:35;;;;;;;9.02;1.92;;;;;;;;;;5052128;28;20041;-71
2023/10/30 03:30:03;;;;;;;8.60;2.13;;;;;;;;;;5053195;28;20025;-70
2023/10/30 03:32:29;;;;;;;10.48;1.90;;;;;;;;;;5053310;28;20035;-71
2023/10/30 03:34:55;;;;;;;9.98;2.33;;;;;;;;;;5051332;28;20028;-70
2023/10/30 03:37:22;;;;;;;9.05;1.75;;;;;;;;;;5052940;28;20039;-70
2023/10/30 03:39:48;;;;;;;9.20;2.10;;;;;;;;;;5052561;28;20017;-71
2023/10/30 03:42:15;;;;;;;9.63;1.75;;;;;;;;;;5052870;28;20482;-71
2023/10/30 03:44:41;;;;;;;10.57;2.03;;;;;;;;;;5053056;28;20025;-71
2023/10/30 03:47:07;;;;;;;11.10;2.13;;;;;;;;;;5053190;28;20081;-71
2023/10/30 03:49:34;;;;;;;8.57;2.00;;;;;;;;;;5052832;28;20028;-70
2023/10/30 03:52:00;;;;;;;6.45;1.50;;;;;;;;;;5053105;28;20466;-71
2023/10/30 03:54:26;;;;;;;13.75;2.25;;;;;;;;;;5052400;28;20029;-71
2023/10/30 03:56:53;;;;;;;6.28;1.80;;;;;;;;;;5052743;28;20043;-71
2023/10/30 03:59:20;;;;;;;12.13;3.08;;;;;;;;;;5052468;28;20471;-71
2023/10/30 04:01:46;;;;;;;10.38;1.67;;;;;;;;;;5052839;28;20070;-70
2023/10/30 04:04:12;;;;;;;10.70;1.73;;;;;;;;;;5052595;28;20029;-71
2023/10/30 04:06:39;;;;;;;10.43;2.03;;;;;;;;;;5052838;28;20025;-71
2023/10/30 04:09:05;;;;;;;12.82;2.25;;;;;;;;;;5052005;28;20040;-71
2023/10/30 04:11:32;;;;;;;8.20;1.70;;;;;;;;;;5052573;28;20025;-71
2023/10/30 04:13:59;;;;;;;12.35;1.73;;;;;;;;;;5052780;28;20033;-70
2023/10/30 04:16:25;;;;;;;12.18;2.13;;;;;;;;;;5052626;28;20074;-71
2023/10/30 04:18:52;;;;;;;13.38;2.20;;;;;;;;;;5052492;28;20028;-71
2023/10/30 04:21:18;;;;;;;7.25;1.63;;;;;;;;;;5052732;28;20024;-70
2023/10/30 04:23:44;;;;;;;11.60;2.17;;;;;;;;;;5052071;28;20033;-71
2023/10/30 04:26:11;;;;;;;11.98;2.10;;;;;;;;;;5052370;28;20036;-71
2023/10/30 04:28:37;;;;;;;9.73;2.10;;;;;;;;;;5052258;28;20009;-71
2023/10/30 04:31:06;;;;;;;9.50;2.00;;;;;;;;;;5052799;28;20058;-71
2023/10/30 04:33:33;;;;;;;10.50;2.03;;;;;;;;;;5052383;28;20476;-71
2023/10/30 04:36:03;;;;;;;18.13;2.58;;;;;;;;;;5052674;28;20029;-71
2023/10/30 04:38:30;;;;;;;12.00;2.20;;;;;;;;;;5051788;28;20033;-71
2023/10/30 04:40:57;;;;;;;12.52;2.05;;;;;;;;;;5052586;28;20017;-70
2023/10/30 04:43:23;;;;;;;11.00;1.85;;;;;;;;;;5052246;28;20031;-70
2023/10/30 04:45:50;;;;;;;14.18;2.22;;;;;;;;;;5054540;28;20025;-70
2023/10/30 04:48:16;;;;;;;12.63;2.05;;;;;;;;;;5056136;28;20519;-70
2023/10/30 04:50:43;;;;;;;12.40;2.17;;;;;;;;;;5056173;28;20409;-70
2023/10/30 04:53:09;;;;;;;12.05;2.00;;;;;;;;;;5055895;28;20496;-71
2023/10/30 04:55:35;;;;;;;8.40;1.83;;;;;;;;;;5055894;28;20021;-71
2023/10/30 04:58:02;;;;;;;12.82;2.60;;;;;;;;;;5055740;28;20049;-71
2023/10/30 05:00:28;;;;;;;16.10;2.63;;;;;;;;;;5056134;28;20409;-71
2023/10/30 05:02:54;;;;;;;13.40;2.40;;;;;;;;;;5055818;28;20025;-71
2023/10/30 05:05:21;;;;;;;13.35;2.22;;;;;;;;;;5055811;28;20025;-70
2023/10/30 05:07:47;;;;;;;12.27;2.17;;;;;;;;;;5055561;28;20029;-70
2023/10/30 05:10:13;;;;;;;16.90;2.65;;;;;;;;;;5054854;28;20078;-70
2023/10/30 05:12:40;;;;;;;16.95;2.20;;;;;;;;;;5055786;28;20027;-71
2023/10/30 05:15:08;;;;;;;13.38;2.15;;;;;;;;;;5055610;28;20033;-71
2023/10/30 05:17:39;;;;;;;10.48;2.22;;;;;;;;;;5055648;28;20037;-71
2023/10/30 05:20:05;;;;;;;;;;;;;;;;;;5056286;28;20017;-71
2023/10/30 05:22:34;;;;;;;8.73;2.20;;;;;;;;;;5055680;28;19905;-71
2023/10/30 05:25:02;;;;;;;10.13;2.33;;;;;;;;;;5055506;28;20375;-71
2023/10/30 05:27:28;;;;;;;11.32;2.10;;;;;;;;;;5055411;28;20025;-71
2023/10/30 05:29:55;;;;;;;11.57;2.53;;;;;;;;;;5055252;28;20021;-71
2023/10/30 05:32:21;;;;;;;13.55;3.13;;;;;;;;;;5055581;28;20021;-71
2023/10/30 05:34:48;;;;;;;12.07;2.67;;;;;;;;;;5055325;28;20032;-71
2023/10/30 05:37:15;;;;;;;10.52;3.25;;;;;;;;;;5054888;28;20032;-71
2023/10/30 05:39:42;;;;;;;12.18;2.60;;;;;;;;;;5055343;28;20021;-70
2023/10/30 05:42:08;;;;;;;14.95;2.40;;;;;;;;;;5055178;28;20033;-70
2023/10/30 05:44:34;;;;;;;9.18;2.17;;;;;;;;;;5055251;28;20029;-71
2023/10/30 05:47:01;;;;;;;12.05;2.35;;;;;;;;;;5055060;28;20028;-70
2023/10/30 05:49:27;;;;;;;9.80;2.00;;;;;;;;;;5055057;28;20017;-70
2023/10/30 05:51:54;;;;;;;8.20;2.10;;;;;;;;;;5054586;28;20027;-70
2023/10/30 05:54:20;;;;;;;10.88;2.05;;;;;;;;;;5053943;28;20021;-70
2023/10/30 05:56:47;;;;;;;14.32;2.22;;;;;;;;;;5053956;28;20031;-71
2023/10/30 05:59:13;;;;;;;12.63;2.13;;;;;;;;;;5054594;28;20059;-71
2023/10/30 06:01:39;;;;;;;11.65;2.10;;;;;;;;;;5054730;28;20028;-70
2023/10/30 06:04:06;;;;;;;12.48;2.15;;;;;;;;;;5054645;28;20025;-71
2023/10/30 06:06:32;;;;;;;11.82;2.00;;;;;;;;;;5053170;28;20044;-71
2023/10/30 06:08:58;;;;;;;15.70;2.55;;;;;;;;;;5054892;28;20036;-70
2023/10/30 06:11:25;;;;;;;10.25;1.95;;;;;;;;;;5054774;28;20086;-71
2023/10/30 06:13:51;;;;;;;10.65;2.28;;;;;;;;;;5053687;28;20025;-71
2023/10/30 06:16:21;;;;;;;14.05;2.15;;;;;;;;;;5054515;28;20023;-70
2023/10/30 06:18:48;;;;;;;9.60;2.07;;;;;;;;;;5054405;28;20036;-71
2023/10/30 06:21:20;;;;;;;13.10;2.20;;;;;;;;;;5054370;28;20139;-70
2023/10/30 06:23:46;;;;;;;8.43;1.77;;;;;;;;;;5054623;28;20017;-70
2023/10/30 06:26:13;;;;;;;12.15;2.20;;;;;;;;;;5054435;28;20039;-71
2023/10/30 06:28:40;;;;;;;10.52;2.00;;;;;;;;;;5054064;28;20013;-70
2023/10/30 06:31:16;;;;;;;10.10;1.85;;;;;;;;;;5054233;28;20033;-71
2023/10/30 06:33:43;;;;;;;12.27;2.05;;;;;;;;;;5054138;28;20029;-70
2023/10/30 06:36:10;;;;;;;16.00;2.15;;;;;;;;;;5054289;28;20033;-70
2023/10/30 06:38:36;;;;;;;13.38;2.33;;;;;;;;;;5053984;28;20478;-70
2023/10/30 06:41:03;;;;;;;12.07;1.98;;;;;;;;;;5053992;28;20033;-70
2023/10/30 06:43:30;;;;;;;9.82;1.63;;;;;;;;;;5052802;28;20381;-71
2023/10/30 06:46:03;;;;;;;10.73;2.08;;;;;;;;;;5053804;28;20478;-70
2023/10/30 06:48:29;;;;;;;11.88;2.08;;;;;;;;;;5053621;28;20029;-70
2023/10/30 06:50:56;;;;;;;10.05;2.08;;;;;;;;;;5054011;28;20043;-71
2023/10/30 06:53:22;;;;;;;7.57;1.98;;;;;;;;;;5054101;28;20017;-70
2023/10/30 06:55:48;;;;;;;12.32;2.20;;;;;;;;;;5053780;28;20025;-70
2023/10/30 06:58:15;;;;;;;9.60;2.22;;;;;;;;;;5053417;28;20044;-70
2023/10/30 07:00:41;;;;;;;8.85;1.92;;;;;;;;;;5053991;28;20027;-70
2023/10/30 07:03:08;;;;;;;8.45;1.88;;;;;;;;;;5053485;28;20031;-71
2023/10/30 07:05:34;;;;;;;7.18;1.80;;;;;;;;;;5053458;28;20029;-71
2023/10/30 07:08:01;;;;;;;9.32;2.00;;;;;;;;;;5053749;28;20420;-70
2023/10/30 07:10:27;;;;;;;10.27;1.90;;;;;;;;;;5053593;28;20025;-70
2023/10/30 07:12:53;;;;;;;13.20;2.17;;;;;;;;;;5053841;28;20492;-71
2023/10/30 07:15:20;;;;;;;10.82;2.38;;;;;;;;;;5053470;28;20025;-71
2023/10/30 07:17:47;;;;;;;9.48;2.08;;;;;;;;;;5052925;28;20025;-70
2023/10/30 07:20:14;;;;;;;13.05;2.00;;;;;;;;;;5053361;28;20029;-70
2023/10/30 07:22:40;;;;;;;8.60;2.08;;;;;;;;;;5053333;28;20037;-70
2023/10/30 07:25:07;;;;;;;9.52;1.77;;;;;;;;;;5053469;28;20073;-70
2023/10/30 07:27:33;;;;;;;11.45;2.53;;;;;;;;;;5053175;28;20474;-70
2023/10/30 07:30:02;;;;;;;12.68;2.20;;;;;;;;;;5053326;28;20420;-71
2023/10/30 07:32:28;;;;;;;12.07;2.25;;;;;;;;;;5053127;28;20039;-70
2023/10/30 07:34:55;;;;;;;10.35;2.22;;;;;;;;;;5053230;28;20021;-70
2023/10/30 07:37:21;;;;;;;7.28;1.80;;;;;;;;;;5052924;28;20383;-71
2023/10/30 07:39:47;;;;;;;9.68;2.45;;;;;;;;;;5053100;28;20074;-71
2023/10/30 07:42:14;;;;;;;8.68;2.33;;;;;;;;;;5053141;28;20033;-70
2023/10/30 07:44:40;;;;;;;9.43;1.95;;;;;;;;;;5052797;28;20381;-71
